sensor_id;sensor_type;location;lat;lon;timestamp;P1;durP1;ratioP1;P2;durP2;ratioP2
8803;SDS011;4438;50.890;4.726;2023-09-07T00:02:22;8.87;;;8.07;;
8803;SDS011;4438;50.890;4.726;2023-09-07T00:04:48;8.13;;;7.43;;
8803;SDS011;4438;50.890;4.726;2023-09-07T00:07:14;9.10;;;8.20;;
8803;SDS011;4438;50.890;4.726;2023-09-07T00:09:41;9.30;;;8.40;;
8803;SDS011;4438;50.890;4.726;2023-09-07T00:12:07;8.77;;;7.90;;
8803;SDS011;4438;50.890;4.726;2023-09-07T00:14:33;8.60;;;7.80;;
8803;SDS011;4438;50.890;4.726;2023-09-07T00:16:59;8.10;;;7.30;;
8803;SDS011;4438;50.890;4.726;2023-09-07T00:19:25;8.70;;;7.80;;
8803;SDS011;4438;50.890;4.726;2023-09-07T00:21:51;7.90;;;7.20;;
8803;SDS011;4438;50.890;4.726;2023-09-07T00:24:17;9.50;;;8.50;;
8803;SDS011;4438;50.890;4.726;2023-09-07T00:26:45;8.80;;;7.93;;
8803;SDS011;4438;50.890;4.726;2023-09-07T00:29:11;8.90;;;8.10;;
8803;SDS011;4438;50.890;4.726;2023-09-07T00:31:37;8.60;;;7.80;;
8803;SDS011;4438;50.890;4.726;2023-09-07T00:34:03;8.40;;;7.60;;
8803;SDS011;4438;50.890;4.726;2023-09-07T00:36:29;8.07;;;7.30;;
8803;SDS011;4438;50.890;4.726;2023-09-07T00:38:55;7.20;;;6.50;;
8803;SDS011;4438;50.890;4.726;2023-09-07T00:41:21;7.63;;;6.93;;
8803;SDS011;4438;50.890;4.726;2023-09-07T00:43:47;7.57;;;6.77;;
8803;SDS011;4438;50.890;4.726;2023-09-07T00:46:13;9.77;;;8.77;;
8803;SDS011;4438;50.890;4.726;2023-09-07T00:48:39;9.17;;;7.90;;
8803;SDS011;4438;50.890;4.726;2023-09-07T00:51:06;11.43;;;8.63;;
8803;SDS011;4438;50.890;4.726;2023-09-07T00:53:32;10.00;;;8.50;;
8803;SDS011;4438;50.890;4.726;2023-09-07T00:55:58;11.03;;;8.23;;
8803;SDS011;4438;50.890;4.726;2023-09-07T00:58:24;8.37;;;7.57;;
8803;SDS011;4438;50.890;4.726;2023-09-07T01:00:50;9.10;;;8.20;;
8803;SDS011;4438;50.890;4.726;2023-09-07T01:03:17;8.83;;;8.07;;
8803;SDS011;4438;50.890;4.726;2023-09-07T01:05:45;8.57;;;7.70;;
8803;SDS011;4438;50.890;4.726;2023-09-07T01:08:18;7.80;;;7.10;;
8803;SDS011;4438;50.890;4.726;2023-09-07T01:10:45;8.57;;;7.70;;
8803;SDS011;4438;50.890;4.726;2023-09-07T01:13:11;9.40;;;8.50;;
8803;SDS011;4438;50.890;4.726;2023-09-07T01:15:37;8.40;;;7.57;;
8803;SDS011;4438;50.890;4.726;2023-09-07T01:18:04;8.53;;;7.70;;
8803;SDS011;4438;50.890;4.726;2023-09-07T01:20:30;9.00;;;8.20;;
8803;SDS011;4438;50.890;4.726;2023-09-07T01:22:57;9.33;;;8.43;;
8803;SDS011;4438;50.890;4.726;2023-09-07T01:25:24;9.27;;;8.37;;
8803;SDS011;4438;50.890;4.726;2023-09-07T01:27:50;7.97;;;7.17;;
8803;SDS011;4438;50.890;4.726;2023-09-07T01:30:16;8.13;;;7.40;;
8803;SDS011;4438;50.890;4.726;2023-09-07T01:32:43;8.57;;;7.77;;
8803;SDS011;4438;50.890;4.726;2023-09-07T01:35:10;7.20;;;6.60;;
8803;SDS011;4438;50.890;4.726;2023-09-07T01:37:37;8.40;;;7.70;;
8803;SDS011;4438;50.890;4.726;2023-09-07T01:40:03;7.50;;;6.90;;
8803;SDS011;4438;50.890;4.726;2023-09-07T01:42:32;7.27;;;6.57;;
8803;SDS011;4438;50.890;4.726;2023-09-07T01:44:58;7.67;;;7.00;;
8803;SDS011;4438;50.890;4.726;2023-09-07T01:47:25;7.37;;;6.60;;
8803;SDS011;4438;50.890;4.726;2023-09-07T01:49:51;7.23;;;6.63;;
8803;SDS011;4438;50.890;4.726;2023-09-07T01:52:17;8.10;;;7.30;;
8803;SDS011;4438;50.890;4.726;2023-09-07T01:54:43;8.10;;;7.30;;
8803;SDS011;4438;50.890;4.726;2023-09-07T01:57:09;7.53;;;6.83;;
8803;SDS011;4438;50.890;4.726;2023-09-07T01:59:35;7.83;;;7.13;;
8803;SDS011;4438;50.890;4.726;2023-09-07T02:02:01;7.57;;;6.87;;
8803;SDS011;4438;50.890;4.726;2023-09-07T02:04:27;7.37;;;6.67;;
8803;SDS011;4438;50.890;4.726;2023-09-07T02:06:53;7.93;;;7.23;;
8803;SDS011;4438;50.890;4.726;2023-09-07T02:09:19;7.53;;;6.83;;
8803;SDS011;4438;50.890;4.726;2023-09-07T02:11:45;7.23;;;6.53;;
8803;SDS011;4438;50.890;4.726;2023-09-07T02:14:11;7.27;;;6.57;;
8803;SDS011;4438;50.890;4.726;2023-09-07T02:16:37;7.93;;;7.20;;
8803;SDS011;4438;50.890;4.726;2023-09-07T02:19:04;7.50;;;6.80;;
8803;SDS011;4438;50.890;4.726;2023-09-07T02:21:30;7.93;;;7.20;;
8803;SDS011;4438;50.890;4.726;2023-09-07T02:23:56;6.93;;;6.33;;
8803;SDS011;4438;50.890;4.726;2023-09-07T02:26:22;7.30;;;6.70;;
8803;SDS011;4438;50.890;4.726;2023-09-07T02:28:48;7.43;;;6.73;;
8803;SDS011;4438;50.890;4.726;2023-09-07T02:31:15;7.23;;;6.53;;
8803;SDS011;4438;50.890;4.726;2023-09-07T02:33:41;7.63;;;7.03;;
8803;SDS011;4438;50.890;4.726;2023-09-07T02:36:07;7.73;;;7.03;;
8803;SDS011;4438;50.890;4.726;2023-09-07T02:38:33;8.43;;;7.07;;
8803;SDS011;4438;50.890;4.726;2023-09-07T02:40:59;9.50;;;7.10;;
8803;SDS011;4438;50.890;4.726;2023-09-07T02:43:26;8.20;;;7.40;;
8803;SDS011;4438;50.890;4.726;2023-09-07T02:45:52;8.50;;;7.70;;
8803;SDS011;4438;50.890;4.726;2023-09-07T02:48:18;8.03;;;7.33;;
8803;SDS011;4438;50.890;4.726;2023-09-07T02:50:44;7.37;;;6.70;;
8803;SDS011;4438;50.890;4.726;2023-09-07T02:53:13;7.23;;;6.63;;
8803;SDS011;4438;50.890;4.726;2023-09-07T02:55:40;7.37;;;6.77;;
8803;SDS011;4438;50.890;4.726;2023-09-07T02:58:06;7.53;;;6.83;;
8803;SDS011;4438;50.890;4.726;2023-09-07T03:00:32;7.73;;;6.93;;
8803;SDS011;4438;50.890;4.726;2023-09-07T03:02:59;7.30;;;6.60;;
8803;SDS011;4438;50.890;4.726;2023-09-07T03:05:29;7.73;;;6.77;;
8803;SDS011;4438;50.890;4.726;2023-09-07T03:07:55;7.47;;;6.83;;
8803;SDS011;4438;50.890;4.726;2023-09-07T03:10:21;7.53;;;6.83;;
8803;SDS011;4438;50.890;4.726;2023-09-07T03:12:47;7.07;;;6.37;;
8803;SDS011;4438;50.890;4.726;2023-09-07T03:15:13;7.70;;;7.00;;
8803;SDS011;4438;50.890;4.726;2023-09-07T03:17:39;7.87;;;7.17;;
8803;SDS011;4438;50.890;4.726;2023-09-07T03:20:05;7.53;;;6.80;;
8803;SDS011;4438;50.890;4.726;2023-09-07T03:22:42;7.30;;;6.60;;
8803;SDS011;4438;50.890;4.726;2023-09-07T03:25:08;7.97;;;7.27;;
8803;SDS011;4438;50.890;4.726;2023-09-07T03:27:37;7.80;;;7.13;;
8803;SDS011;4438;50.890;4.726;2023-09-07T03:30:04;7.60;;;6.90;;
8803;SDS011;4438;50.890;4.726;2023-09-07T03:32:31;7.27;;;6.50;;
8803;SDS011;4438;50.890;4.726;2023-09-07T03:35:02;8.37;;;7.57;;
8803;SDS011;4438;50.890;4.726;2023-09-07T03:37:28;7.77;;;7.07;;
8803;SDS011;4438;50.890;4.726;2023-09-07T03:39:55;9.00;;;6.73;;
8803;SDS011;4438;50.890;4.726;2023-09-07T03:42:21;7.37;;;6.77;;
8803;SDS011;4438;50.890;4.726;2023-09-07T03:44:47;7.63;;;6.93;;
8803;SDS011;4438;50.890;4.726;2023-09-07T03:47:14;7.97;;;7.30;;
8803;SDS011;4438;50.890;4.726;2023-09-07T03:49:43;7.20;;;6.60;;
8803;SDS011;4438;50.890;4.726;2023-09-07T03:52:09;7.57;;;6.90;;
8803;SDS011;4438;50.890;4.726;2023-09-07T03:54:36;7.17;;;6.57;;
8803;SDS011;4438;50.890;4.726;2023-09-07T03:57:02;7.90;;;7.10;;
8803;SDS011;4438;50.890;4.726;2023-09-07T03:59:29;7.97;;;7.17;;
8803;SDS011;4438;50.890;4.726;2023-09-07T04:01:55;7.20;;;6.60;;
8803;SDS011;4438;50.890;4.726;2023-09-07T04:04:21;7.00;;;6.43;;
8803;SDS011;4438;50.890;4.726;2023-09-07T04:06:47;7.03;;;6.43;;
8803;SDS011;4438;50.890;4.726;2023-09-07T04:09:13;7.27;;;6.67;;
8803;SDS011;4438;50.890;4.726;2023-09-07T04:11:39;7.53;;;6.83;;
8803;SDS011;4438;50.890;4.726;2023-09-07T04:14:06;7.20;;;6.57;;
8803;SDS011;4438;50.890;4.726;2023-09-07T04:16:32;6.67;;;6.07;;
8803;SDS011;4438;50.890;4.726;2023-09-07T04:18:58;7.43;;;6.83;;
8803;SDS011;4438;50.890;4.726;2023-09-07T04:21:24;7.00;;;6.30;;
8803;SDS011;4438;50.890;4.726;2023-09-07T04:23:50;7.47;;;6.87;;
8803;SDS011;4438;50.890;4.726;2023-09-07T04:26:16;7.60;;;6.90;;
8803;SDS011;4438;50.890;4.726;2023-09-07T04:28:42;7.20;;;6.50;;
8803;SDS011;4438;50.890;4.726;2023-09-07T04:31:08;7.20;;;6.60;;
8803;SDS011;4438;50.890;4.726;2023-09-07T04:33:34;7.03;;;6.40;;
8803;SDS011;4438;50.890;4.726;2023-09-07T04:36:10;7.00;;;6.40;;
8803;SDS011;4438;50.890;4.726;2023-09-07T04:38:36;6.73;;;6.13;;
8803;SDS011;4438;50.890;4.726;2023-09-07T04:41:06;7.87;;;6.80;;
8803;SDS011;4438;50.890;4.726;2023-09-07T04:43:32;6.97;;;6.37;;
8803;SDS011;4438;50.890;4.726;2023-09-07T04:45:59;7.17;;;6.57;;
8803;SDS011;4438;50.890;4.726;2023-09-07T04:48:25;7.50;;;6.80;;
8803;SDS011;4438;50.890;4.726;2023-09-07T04:53:44;7.23;;;6.63;;
8803;SDS011;4438;50.890;4.726;2023-09-07T04:56:10;7.43;;;6.73;;
8803;SDS011;4438;50.890;4.726;2023-09-07T04:58:37;7.17;;;6.57;;
8803;SDS011;4438;50.890;4.726;2023-09-07T05:01:07;8.73;;;7.57;;
8803;SDS011;4438;50.890;4.726;2023-09-07T05:03:34;8.00;;;7.30;;
8803;SDS011;4438;50.890;4.726;2023-09-07T05:06:00;7.00;;;6.33;;
8803;SDS011;4438;50.890;4.726;2023-09-07T05:08:28;7.17;;;6.57;;
8803;SDS011;4438;50.890;4.726;2023-09-07T05:10:54;7.23;;;6.63;;
8803;SDS011;4438;50.890;4.726;2023-09-07T05:13:21;7.00;;;6.40;;
8803;SDS011;4438;50.890;4.726;2023-09-07T05:15:48;8.20;;;7.50;;
8803;SDS011;4438;50.890;4.726;2023-09-07T05:18:14;7.97;;;7.27;;
8803;SDS011;4438;50.890;4.726;2023-09-07T05:20:40;8.20;;;7.50;;
8803;SDS011;4438;50.890;4.726;2023-09-07T05:23:06;8.00;;;7.30;;
8803;SDS011;4438;50.890;4.726;2023-09-07T05:25:32;7.90;;;7.20;;
8803;SDS011;4438;50.890;4.726;2023-09-07T05:27:58;8.33;;;7.47;;
8803;SDS011;4438;50.890;4.726;2023-09-07T05:30:24;7.80;;;6.77;;
8803;SDS011;4438;50.890;4.726;2023-09-07T05:32:51;8.30;;;7.60;;
8803;SDS011;4438;50.890;4.726;2023-09-07T05:35:17;7.67;;;7.00;;
8803;SDS011;4438;50.890;4.726;2023-09-07T05:37:43;9.13;;;8.23;;
8803;SDS011;4438;50.890;4.726;2023-09-07T05:40:09;8.37;;;7.67;;
8803;SDS011;4438;50.890;4.726;2023-09-07T05:42:35;8.93;;;8.03;;
8803;SDS011;4438;50.890;4.726;2023-09-07T05:45:01;8.33;;;7.53;;
8803;SDS011;4438;50.890;4.726;2023-09-07T05:47:28;8.27;;;7.50;;
8803;SDS011;4438;50.890;4.726;2023-09-07T05:49:54;7.97;;;7.27;;
8803;SDS011;4438;50.890;4.726;2023-09-07T05:52:20;9.53;;;8.63;;
8803;SDS011;4438;50.890;4.726;2023-09-07T05:54:46;8.33;;;7.63;;
8803;SDS011;4438;50.890;4.726;2023-09-07T05:57:12;8.83;;;7.93;;
8803;SDS011;4438;50.890;4.726;2023-09-07T05:59:38;8.77;;;7.90;;
8803;SDS011;4438;50.890;4.726;2023-09-07T06:02:05;8.57;;;7.70;;
8803;SDS011;4438;50.890;4.726;2023-09-07T06:04:31;8.90;;;8.10;;
8803;SDS011;4438;50.890;4.726;2023-09-07T06:06:57;9.17;;;8.10;;
8803;SDS011;4438;50.890;4.726;2023-09-07T06:09:23;9.37;;;8.47;;
8803;SDS011;4438;50.890;4.726;2023-09-07T06:11:49;8.80;;;8.00;;
8803;SDS011;4438;50.890;4.726;2023-09-07T06:14:15;9.57;;;8.70;;
8803;SDS011;4438;50.890;4.726;2023-09-07T06:16:41;9.30;;;8.40;;
8803;SDS011;4438;50.890;4.726;2023-09-07T06:19:07;8.33;;;7.53;;
8803;SDS011;4438;50.890;4.726;2023-09-07T06:21:33;9.00;;;8.20;;
8803;SDS011;4438;50.890;4.726;2023-09-07T06:23:59;11.17;;;8.83;;
8803;SDS011;4438;50.890;4.726;2023-09-07T06:26:25;9.90;;;9.00;;
8803;SDS011;4438;50.890;4.726;2023-09-07T06:28:51;10.37;;;9.33;;
8803;SDS011;4438;50.890;4.726;2023-09-07T06:31:17;11.97;;;10.77;;
8803;SDS011;4438;50.890;4.726;2023-09-07T06:33:43;11.60;;;10.40;;
8803;SDS011;4438;50.890;4.726;2023-09-07T06:36:09;11.77;;;10.57;;
8803;SDS011;4438;50.890;4.726;2023-09-07T06:38:35;11.57;;;10.47;;
8803;SDS011;4438;50.890;4.726;2023-09-07T06:41:01;12.03;;;10.83;;
8803;SDS011;4438;50.890;4.726;2023-09-07T06:43:27;10.70;;;9.70;;
8803;SDS011;4438;50.890;4.726;2023-09-07T06:46:01;12.73;;;11.53;;
8803;SDS011;4438;50.890;4.726;2023-09-07T06:48:27;12.57;;;10.23;;
8803;SDS011;4438;50.890;4.726;2023-09-07T06:50:53;11.33;;;10.17;;
8803;SDS011;4438;50.890;4.726;2023-09-07T06:53:19;10.77;;;9.83;;
8803;SDS011;4438;50.890;4.726;2023-09-07T06:55:45;11.53;;;10.13;;
8803;SDS011;4438;50.890;4.726;2023-09-07T06:58:11;11.97;;;10.77;;
8803;SDS011;4438;50.890;4.726;2023-09-07T07:00:37;11.53;;;10.43;;
8803;SDS011;4438;50.890;4.726;2023-09-07T07:03:03;12.50;;;10.37;;
8803;SDS011;4438;50.890;4.726;2023-09-07T07:05:29;10.80;;;9.77;;
8803;SDS011;4438;50.890;4.726;2023-09-07T07:07:55;10.67;;;9.57;;
8803;SDS011;4438;50.890;4.726;2023-09-07T07:10:22;10.60;;;9.50;;
8803;SDS011;4438;50.890;4.726;2023-09-07T07:12:48;9.77;;;8.83;;
8803;SDS011;4438;50.890;4.726;2023-09-07T07:15:14;9.80;;;8.90;;
8803;SDS011;4438;50.890;4.726;2023-09-07T07:17:40;9.33;;;8.43;;
8803;SDS011;4438;50.890;4.726;2023-09-07T07:20:07;9.60;;;8.70;;
8803;SDS011;4438;50.890;4.726;2023-09-07T07:22:33;9.63;;;8.73;;
8803;SDS011;4438;50.890;4.726;2023-09-07T07:25:00;9.73;;;8.63;;
8803;SDS011;4438;50.890;4.726;2023-09-07T07:27:30;9.50;;;8.27;;
8803;SDS011;4438;50.890;4.726;2023-09-07T07:29:57;10.07;;;8.77;;
8803;SDS011;4438;50.890;4.726;2023-09-07T07:32:23;10.10;;;9.10;;
8803;SDS011;4438;50.890;4.726;2023-09-07T07:34:49;8.73;;;7.87;;
8803;SDS011;4438;50.890;4.726;2023-09-07T07:37:15;8.67;;;7.97;;
8803;SDS011;4438;50.890;4.726;2023-09-07T07:39:41;8.60;;;7.87;;
8803;SDS011;4438;50.890;4.726;2023-09-07T07:42:07;9.40;;;8.17;;
8803;SDS011;4438;50.890;4.726;2023-09-07T07:44:34;8.53;;;7.83;;
8803;SDS011;4438;50.890;4.726;2023-09-07T07:47:00;9.80;;;8.03;;
8803;SDS011;4438;50.890;4.726;2023-09-07T07:49:26;7.70;;;6.97;;
8803;SDS011;4438;50.890;4.726;2023-09-07T07:51:52;8.37;;;7.67;;
8803;SDS011;4438;50.890;4.726;2023-09-07T07:54:20;8.40;;;7.60;;
8803;SDS011;4438;50.890;4.726;2023-09-07T07:56:48;7.67;;;6.97;;
8803;SDS011;4438;50.890;4.726;2023-09-07T07:59:14;8.10;;;7.30;;
8803;SDS011;4438;50.890;4.726;2023-09-07T08:01:40;8.13;;;7.07;;
8803;SDS011;4438;50.890;4.726;2023-09-07T08:04:07;8.10;;;7.30;;
8803;SDS011;4438;50.890;4.726;2023-09-07T08:06:33;7.63;;;6.90;;
8803;SDS011;4438;50.890;4.726;2023-09-07T08:09:00;8.10;;;6.40;;
8803;SDS011;4438;50.890;4.726;2023-09-07T08:11:26;6.87;;;6.27;;
8803;SDS011;4438;50.890;4.726;2023-09-07T08:13:52;7.30;;;6.60;;
8803;SDS011;4438;50.890;4.726;2023-09-07T08:16:18;7.50;;;6.80;;
8803;SDS011;4438;50.890;4.726;2023-09-07T08:18:44;7.00;;;6.30;;
8803;SDS011;4438;50.890;4.726;2023-09-07T08:21:11;7.40;;;6.53;;
8803;SDS011;4438;50.890;4.726;2023-09-07T08:23:37;6.93;;;6.33;;
8803;SDS011;4438;50.890;4.726;2023-09-07T08:26:03;7.63;;;6.83;;
8803;SDS011;4438;50.890;4.726;2023-09-07T08:28:30;7.03;;;6.43;;
8803;SDS011;4438;50.890;4.726;2023-09-07T08:30:56;6.57;;;6.07;;
8803;SDS011;4438;50.890;4.726;2023-09-07T08:33:24;7.30;;;6.70;;
8803;SDS011;4438;50.890;4.726;2023-09-07T08:35:54;6.47;;;5.87;;
8803;SDS011;4438;50.890;4.726;2023-09-07T08:38:21;6.57;;;5.80;;
8803;SDS011;4438;50.890;4.726;2023-09-07T08:40:50;6.70;;;6.10;;
8803;SDS011;4438;50.890;4.726;2023-09-07T08:43:16;6.40;;;5.83;;
8803;SDS011;4438;50.890;4.726;2023-09-07T08:45:50;6.17;;;5.60;;
8803;SDS011;4438;50.890;4.726;2023-09-07T08:48:17;6.03;;;5.50;;
8803;SDS011;4438;50.890;4.726;2023-09-07T08:50:45;5.83;;;5.30;;
8803;SDS011;4438;50.890;4.726;2023-09-07T08:53:19;6.43;;;5.83;;
8803;SDS011;4438;50.890;4.726;2023-09-07T08:55:45;6.33;;;5.73;;
8803;SDS011;4438;50.890;4.726;2023-09-07T08:58:12;6.27;;;5.43;;
8803;SDS011;4438;50.890;4.726;2023-09-07T09:00:38;5.90;;;5.30;;
8803;SDS011;4438;50.890;4.726;2023-09-07T09:03:08;5.63;;;5.17;;
8803;SDS011;4438;50.890;4.726;2023-09-07T09:05:34;5.93;;;5.30;;
8803;SDS011;4438;50.890;4.726;2023-09-07T09:08:04;5.80;;;5.20;;
8803;SDS011;4438;50.890;4.726;2023-09-07T09:10:31;5.57;;;5.03;;
8803;SDS011;4438;50.890;4.726;2023-09-07T09:12:57;5.40;;;4.90;;
8803;SDS011;4438;50.890;4.726;2023-09-07T09:15:26;5.40;;;5.00;;
8803;SDS011;4438;50.890;4.726;2023-09-07T09:17:53;5.07;;;4.57;;
8803;SDS011;4438;50.890;4.726;2023-09-07T09:20:19;5.53;;;5.00;;
8803;SDS011;4438;50.890;4.726;2023-09-07T09:22:47;5.77;;;5.27;;
8803;SDS011;4438;50.890;4.726;2023-09-07T09:25:13;6.20;;;5.50;;
8803;SDS011;4438;50.890;4.726;2023-09-07T09:27:40;5.70;;;5.20;;
8803;SDS011;4438;50.890;4.726;2023-09-07T09:30:06;5.50;;;5.00;;
8803;SDS011;4438;50.890;4.726;2023-09-07T09:32:32;5.63;;;4.90;;
8803;SDS011;4438;50.890;4.726;2023-09-07T09:34:58;5.20;;;4.70;;
8803;SDS011;4438;50.890;4.726;2023-09-07T09:37:25;5.97;;;5.13;;
8803;SDS011;4438;50.890;4.726;2023-09-07T09:39:52;4.87;;;4.40;;
8803;SDS011;4438;50.890;4.726;2023-09-07T09:42:19;4.80;;;4.30;;
8803;SDS011;4438;50.890;4.726;2023-09-07T09:44:46;4.70;;;4.27;;
8803;SDS011;4438;50.890;4.726;2023-09-07T09:47:12;5.63;;;4.73;;
8803;SDS011;4438;50.890;4.726;2023-09-07T09:49:39;4.87;;;4.50;;
8803;SDS011;4438;50.890;4.726;2023-09-07T09:52:06;4.80;;;4.40;;
8803;SDS011;4438;50.890;4.726;2023-09-07T09:54:34;5.90;;;4.03;;
8803;SDS011;4438;50.890;4.726;2023-09-07T09:57:01;4.33;;;4.00;;
8803;SDS011;4438;50.890;4.726;2023-09-07T09:59:27;5.10;;;4.70;;
8803;SDS011;4438;50.890;4.726;2023-09-07T10:01:54;6.20;;;4.83;;
8803;SDS011;4438;50.890;4.726;2023-09-07T10:04:20;4.80;;;4.40;;
8803;SDS011;4438;50.890;4.726;2023-09-07T10:07:00;8.57;;;4.50;;
8803;SDS011;4438;50.890;4.726;2023-09-07T10:09:30;4.87;;;4.33;;
8803;SDS011;4438;50.890;4.726;2023-09-07T10:11:58;5.40;;;4.90;;
8803;SDS011;4438;50.890;4.726;2023-09-07T10:14:37;4.90;;;4.40;;
8803;SDS011;4438;50.890;4.726;2023-09-07T10:17:04;4.90;;;4.40;;
8803;SDS011;4438;50.890;4.726;2023-09-07T10:19:30;4.37;;;4.03;;
8803;SDS011;4438;50.890;4.726;2023-09-07T10:21:56;4.97;;;4.27;;
8803;SDS011;4438;50.890;4.726;2023-09-07T10:24:26;4.87;;;4.47;;
8803;SDS011;4438;50.890;4.726;2023-09-07T10:26:59;4.93;;;4.53;;
8803;SDS011;4438;50.890;4.726;2023-09-07T10:29:26;4.80;;;4.37;;
8803;SDS011;4438;50.890;4.726;2023-09-07T10:31:53;5.23;;;4.73;;
8803;SDS011;4438;50.890;4.726;2023-09-07T10:34:19;4.82;;;4.43;;
8803;SDS011;4438;50.890;4.726;2023-09-07T10:36:47;4.90;;;4.50;;
8803;SDS011;4438;50.890;4.726;2023-09-07T10:39:16;5.43;;;4.85;;
8803;SDS011;4438;50.890;4.726;2023-09-07T10:41:42;5.10;;;4.40;;
8803;SDS011;4438;50.890;4.726;2023-09-07T10:44:09;5.20;;;4.70;;
8803;SDS011;4438;50.890;4.726;2023-09-07T10:46:39;6.00;;;4.68;;
8803;SDS011;4438;50.890;4.726;2023-09-07T10:49:08;4.97;;;4.47;;
8803;SDS011;4438;50.890;4.726;2023-09-07T10:51:55;4.60;;;4.22;;
8803;SDS011;4438;50.890;4.726;2023-09-07T10:54:24;6.13;;;4.53;;
8803;SDS011;4438;50.890;4.726;2023-09-07T10:56:50;4.85;;;4.45;;
8803;SDS011;4438;50.890;4.726;2023-09-07T10:59:17;4.80;;;4.40;;
8803;SDS011;4438;50.890;4.726;2023-09-07T11:01:43;4.88;;;4.38;;
8803;SDS011;4438;50.890;4.726;2023-09-07T11:04:10;5.00;;;4.50;;
8803;SDS011;4438;50.890;4.726;2023-09-07T11:06:36;4.70;;;4.30;;
8803;SDS011;4438;50.890;4.726;2023-09-07T11:09:03;5.18;;;4.70;;
8803;SDS011;4438;50.890;4.726;2023-09-07T11:11:31;5.18;;;4.78;;
8803;SDS011;4438;50.890;4.726;2023-09-07T11:14:04;5.95;;;5.35;;
8803;SDS011;4438;50.890;4.726;2023-09-07T11:16:30;5.28;;;4.75;;
8803;SDS011;4438;50.890;4.726;2023-09-07T11:18:56;5.00;;;4.43;;
8803;SDS011;4438;50.890;4.726;2023-09-07T11:21:23;4.78;;;4.38;;
8803;SDS011;4438;50.890;4.726;2023-09-07T11:23:51;4.70;;;4.30;;
8803;SDS011;4438;50.890;4.726;2023-09-07T11:26:17;5.22;;;4.60;;
8803;SDS011;4438;50.890;4.726;2023-09-07T11:28:45;5.43;;;4.60;;
8803;SDS011;4438;50.890;4.726;2023-09-07T11:31:11;5.10;;;4.70;;
8803;SDS011;4438;50.890;4.726;2023-09-07T11:33:37;5.07;;;4.60;;
8803;SDS011;4438;50.890;4.726;2023-09-07T11:36:04;4.93;;;4.45;;
8803;SDS011;4438;50.890;4.726;2023-09-07T11:38:34;5.40;;;4.88;;
8803;SDS011;4438;50.890;4.726;2023-09-07T11:41:01;4.72;;;4.38;;
8803;SDS011;4438;50.890;4.726;2023-09-07T11:43:28;5.07;;;4.57;;
8803;SDS011;4438;50.890;4.726;2023-09-07T11:45:54;5.13;;;4.70;;
8803;SDS011;4438;50.890;4.726;2023-09-07T11:48:20;4.95;;;4.60;;
8803;SDS011;4438;50.890;4.726;2023-09-07T11:50:46;5.75;;;4.78;;
8803;SDS011;4438;50.890;4.726;2023-09-07T11:53:12;7.15;;;5.07;;
8803;SDS011;4438;50.890;4.726;2023-09-07T11:55:38;5.28;;;4.80;;
8803;SDS011;4438;50.890;4.726;2023-09-07T11:58:06;5.47;;;4.97;;
8803;SDS011;4438;50.890;4.726;2023-09-07T12:00:32;5.53;;;4.88;;
8803;SDS011;4438;50.890;4.726;2023-09-07T12:02:58;5.07;;;4.68;;
8803;SDS011;4438;50.890;4.726;2023-09-07T12:05:24;5.68;;;5.15;;
8803;SDS011;4438;50.890;4.726;2023-09-07T12:07:50;6.95;;;5.68;;
8803;SDS011;4438;50.890;4.726;2023-09-07T12:10:16;5.50;;;5.00;;
8803;SDS011;4438;50.890;4.726;2023-09-07T12:12:43;5.20;;;4.70;;
8803;SDS011;4438;50.890;4.726;2023-09-07T12:15:10;6.20;;;5.60;;
8803;SDS011;4438;50.890;4.726;2023-09-07T12:17:39;5.35;;;4.82;;
8803;SDS011;4438;50.890;4.726;2023-09-07T12:20:06;7.10;;;5.07;;
8803;SDS011;4438;50.890;4.726;2023-09-07T12:22:35;6.22;;;5.63;;
8803;SDS011;4438;50.890;4.726;2023-09-07T12:25:03;5.72;;;5.18;;
8803;SDS011;4438;50.890;4.726;2023-09-07T12:27:29;6.95;;;6.35;;
8803;SDS011;4438;50.890;4.726;2023-09-07T12:29:55;6.03;;;5.53;;
8803;SDS011;4438;50.890;4.726;2023-09-07T12:32:21;6.07;;;5.40;;
8803;SDS011;4438;50.890;4.726;2023-09-07T12:34:47;5.22;;;4.85;;
8803;SDS011;4438;50.890;4.726;2023-09-07T12:37:18;6.38;;;5.63;;
8803;SDS011;4438;50.890;4.726;2023-09-07T12:39:44;5.82;;;5.32;;
8803;SDS011;4438;50.890;4.726;2023-09-07T12:42:10;6.05;;;5.15;;
8803;SDS011;4438;50.890;4.726;2023-09-07T12:44:36;5.63;;;5.13;;
8803;SDS011;4438;50.890;4.726;2023-09-07T12:47:02;5.80;;;5.30;;
8803;SDS011;4438;50.890;4.726;2023-09-07T12:49:29;5.85;;;5.25;;
8803;SDS011;4438;50.890;4.726;2023-09-07T12:51:55;5.88;;;5.30;;
8803;SDS011;4438;50.890;4.726;2023-09-07T12:54:21;5.90;;;5.38;;
8803;SDS011;4438;50.890;4.726;2023-09-07T12:56:47;5.90;;;4.82;;
8803;SDS011;4438;50.890;4.726;2023-09-07T12:59:13;6.97;;;5.20;;
8803;SDS011;4438;50.890;4.726;2023-09-07T13:01:39;6.13;;;4.90;;
8803;SDS011;4438;50.890;4.726;2023-09-07T13:04:05;5.40;;;5.00;;
8803;SDS011;4438;50.890;4.726;2023-09-07T13:06:31;5.75;;;5.20;;
8803;SDS011;4438;50.890;4.726;2023-09-07T13:08:57;5.25;;;4.68;;
8803;SDS011;4438;50.890;4.726;2023-09-07T13:11:24;5.47;;;5.07;;
8803;SDS011;4438;50.890;4.726;2023-09-07T13:13:50;5.43;;;4.95;;
8803;SDS011;4438;50.890;4.726;2023-09-07T13:16:17;5.93;;;4.93;;
8803;SDS011;4438;50.890;4.726;2023-09-07T13:18:43;5.28;;;4.88;;
8803;SDS011;4438;50.890;4.726;2023-09-07T13:21:09;5.28;;;4.90;;
8803;SDS011;4438;50.890;4.726;2023-09-07T13:23:35;5.80;;;5.30;;
8803;SDS011;4438;50.890;4.726;2023-09-07T13:26:01;6.68;;;4.95;;
8803;SDS011;4438;50.890;4.726;2023-09-07T13:28:27;5.43;;;5.00;;
8803;SDS011;4438;50.890;4.726;2023-09-07T13:30:53;5.57;;;5.07;;
8803;SDS011;4438;50.890;4.726;2023-09-07T13:33:19;5.43;;;4.70;;
8803;SDS011;4438;50.890;4.726;2023-09-07T13:35:45;4.82;;;4.43;;
8803;SDS011;4438;50.890;4.726;2023-09-07T13:38:12;5.90;;;5.38;;
8803;SDS011;4438;50.890;4.726;2023-09-07T13:40:38;5.35;;;4.95;;
8803;SDS011;4438;50.890;4.726;2023-09-07T13:43:04;5.63;;;5.13;;
8803;SDS011;4438;50.890;4.726;2023-09-07T13:45:30;5.60;;;5.10;;
8803;SDS011;4438;50.890;4.726;2023-09-07T13:47:56;5.72;;;5.22;;
8803;SDS011;4438;50.890;4.726;2023-09-07T13:50:22;5.70;;;5.20;;
8803;SDS011;4438;50.890;4.726;2023-09-07T13:52:48;5.25;;;4.85;;
8803;SDS011;4438;50.890;4.726;2023-09-07T13:55:15;5.85;;;5.35;;
8803;SDS011;4438;50.890;4.726;2023-09-07T13:57:41;6.40;;;5.82;;
8803;SDS011;4438;50.890;4.726;2023-09-07T14:00:07;5.72;;;5.22;;
8803;SDS011;4438;50.890;4.726;2023-09-07T14:02:33;5.38;;;4.88;;
8803;SDS011;4438;50.890;4.726;2023-09-07T14:04:59;5.10;;;4.70;;
8803;SDS011;4438;50.890;4.726;2023-09-07T14:07:25;5.97;;;5.43;;
8803;SDS011;4438;50.890;4.726;2023-09-07T14:09:53;6.65;;;5.15;;
8803;SDS011;4438;50.890;4.726;2023-09-07T14:12:19;6.00;;;5.30;;
8803;SDS011;4438;50.890;4.726;2023-09-07T14:14:45;5.28;;;4.78;;
8803;SDS011;4438;50.890;4.726;2023-09-07T14:17:11;5.22;;;4.85;;
8803;SDS011;4438;50.890;4.726;2023-09-07T14:19:37;5.45;;;4.93;;
8803;SDS011;4438;50.890;4.726;2023-09-07T14:22:03;5.63;;;5.13;;
8803;SDS011;4438;50.890;4.726;2023-09-07T14:24:29;6.45;;;4.90;;
8803;SDS011;4438;50.890;4.726;2023-09-07T14:26:55;5.30;;;4.60;;
8803;SDS011;4438;50.890;4.726;2023-09-07T14:29:22;5.65;;;5.20;;
8803;SDS011;4438;50.890;4.726;2023-09-07T14:31:48;10.95;;;4.90;;
8803;SDS011;4438;50.890;4.726;2023-09-07T14:34:14;5.55;;;5.15;;
8803;SDS011;4438;50.890;4.726;2023-09-07T14:36:40;5.72;;;5.25;;
8803;SDS011;4438;50.890;4.726;2023-09-07T14:39:06;6.05;;;5.55;;
8803;SDS011;4438;50.890;4.726;2023-09-07T14:41:34;5.60;;;5.20;;
8803;SDS011;4438;50.890;4.726;2023-09-07T14:44:00;5.55;;;5.15;;
8803;SDS011;4438;50.890;4.726;2023-09-07T14:46:26;5.28;;;4.75;;
8803;SDS011;4438;50.890;4.726;2023-09-07T14:48:52;5.82;;;5.32;;
8803;SDS011;4438;50.890;4.726;2023-09-07T14:51:18;5.68;;;5.20;;
8803;SDS011;4438;50.890;4.726;2023-09-07T14:53:44;5.50;;;5.00;;
8803;SDS011;4438;50.890;4.726;2023-09-07T14:56:11;5.55;;;5.05;;
8803;SDS011;4438;50.890;4.726;2023-09-07T14:58:38;6.22;;;5.32;;
8803;SDS011;4438;50.890;4.726;2023-09-07T15:01:04;5.85;;;5.30;;
8803;SDS011;4438;50.890;4.726;2023-09-07T15:03:30;5.95;;;5.35;;
8803;SDS011;4438;50.890;4.726;2023-09-07T15:05:56;5.32;;;4.93;;
8803;SDS011;4438;50.890;4.726;2023-09-07T15:08:22;6.65;;;5.45;;
8803;SDS011;4438;50.890;4.726;2023-09-07T15:10:48;5.88;;;5.22;;
8803;SDS011;4438;50.890;4.726;2023-09-07T15:13:15;7.53;;;5.40;;
8803;SDS011;4438;50.890;4.726;2023-09-07T15:15:41;8.48;;;5.30;;